Time;durP1;ratioP1;P1;durP2;ratioP2;P2;SDS_P1;SDS_P2;PMS_P1;PMS_P2;Temp;Humidity;BMP_temperature;BMP_pressure;BME280_temperature;BME280_humidity;BME280_pressure;Samples;Min_cycle;Max_cycle;Signal;HPM_P1;HPM_P2
2021/11/14 00:00:26;;;;;;;;;21.75;20.50;;;;;14.99;45.54;98708.75;4799413;28;104142;-88
2021/11/14 00:02:54;;;;;;;;;25.75;21.50;;;;;14.99;46.16;98706.84;4814051;29;111138;-83
2021/11/14 00:05:33;;;;;;;;;25.75;21.50;;;;;14.98;45.81;98707.06;4810299;29;102275;-90
2021/11/14 00:08:00;;;;;;;;;24.50;20.25;;;;;14.97;46.10;98703.50;4820440;28;102381;-90
2021/11/14 00:10:27;;;;;;;;;22.75;20.75;;;;;14.97;46.05;98706.22;4802166;29;103993;-82
2021/11/14 00:12:55;;;;;;;;;23.50;20.25;;;;;14.96;46.14;98703.72;4814743;29;102580;-83
2021/11/14 00:15:22;;;;;;;;;29.25;24.25;;;;;14.95;46.09;98702.91;4798666;29;102585;-89
2021/11/14 00:17:49;;;;;;;;;28.00;22.00;;;;;14.93;45.90;98702.31;4807752;29;102171;-89
2021/11/14 00:20:17;;;;;;;;;25.75;20.25;;;;;14.88;45.50;98704.88;4807764;29;104405;-89
2021/11/14 00:22:44;;;;;;;;;25.75;23.25;;;;;14.87;46.19;98708.66;4818743;29;103319;-83
2021/11/14 00:25:13;;;;;;;;;23.25;23.00;;;;;14.85;45.73;98699.88;4823668;29;103610;-82
2021/11/14 00:27:41;;;;;;;;;26.50;24.00;;;;;14.85;45.73;98708.06;4797813;29;102706;-83
2021/11/14 00:30:08;;;;;;;;;25.75;22.50;;;;;14.83;46.23;98704.72;4804529;29;103827;-89
2021/11/14 00:32:35;;;;;;;;;22.50;21.00;;;;;14.84;45.76;98706.38;4824168;29;102606;-89
2021/11/14 00:35:04;;;;;;;;;24.75;21.75;;;;;14.83;46.21;98702.00;4821664;29;102231;-89
2021/11/14 00:37:34;;;;;;;;;21.25;16.25;;;;;14.85;45.95;98715.38;4817490;29;102654;-82
2021/11/14 00:40:05;;;;;;;;;31.50;23.00;;;;;14.87;46.21;98714.09;4808979;29;104473;-88
2021/11/14 00:42:32;;;;;;;;;26.50;20.50;;;;;14.87;46.10;98711.38;4821323;29;102605;-89
2021/11/14 00:44:59;;;;;;;;;25.25;22.50;;;;;14.87;45.83;98710.53;4821223;29;103658;-89
2021/11/14 00:47:26;;;;;;;;;26.25;24.00;;;;;14.88;45.75;98714.91;4809576;29;102590;-88
2021/11/14 00:49:53;;;;;;;;;22.25;22.00;;;;;14.89;45.78;98708.44;4830247;29;104040;-88
2021/11/14 00:52:20;;;;;;;;;21.75;21.75;;;;;14.87;45.86;98711.38;4811020;29;102188;-89
2021/11/14 00:54:47;;;;;;;;;21.75;20.00;;;;;14.90;46.18;98713.66;4807393;29;102296;-88
2021/11/14 00:57:14;;;;;;;;;26.00;22.25;;;;;14.90;45.65;98719.09;4827499;29;102199;-83
2021/11/14 00:59:41;;;;;;;;;22.25;19.00;;;;;14.90;46.29;98713.66;4814465;28;104242;-83
2021/11/14 01:02:08;;;;;;;;;25.25;20.00;;;;;14.91;45.97;98723.47;4817032;28;103600;-83
2021/11/14 01:04:35;;;;;;;;;22.25;19.25;;;;;14.91;46.17;98718.03;4788011;29;103542;-89
2021/11/14 01:07:02;;;;;;;;;22.50;20.75;;;;;14.94;45.59;98716.75;4814747;28;102718;-88
2021/11/14 01:09:30;;;;;;;;;23.00;20.00;;;;;14.94;46.02;98717.59;4822945;29;104138;-88
2021/11/14 01:11:57;;;;;;;;;31.00;24.25;;;;;14.95;46.31;98715.72;4822907;28;102418;-82
2021/11/14 01:14:24;;;;;;;;;28.50;21.25;;;;;14.95;45.78;98718.44;4818242;29;102859;-82
2021/11/14 01:16:51;;;;;;;;;24.25;23.00;;;;;14.96;45.73;98712.72;4818633;29;104345;-89
2021/11/14 01:19:19;;;;;;;;;23.00;18.00;;;;;14.97;45.81;98708.97;4823074;29;104257;-89
2021/11/14 01:21:46;;;;;;;;;24.50;20.50;;;;;14.94;46.04;98712.16;4823396;28;102511;-89
2021/11/14 01:24:14;;;;;;;;;26.75;21.75;;;;;14.97;45.98;98714.41;4803742;29;102414;-82
2021/11/14 01:26:42;;;;;;;;;25.00;22.50;;;;;14.98;45.82;98712.50;4827507;28;102271;-83
2021/11/14 01:29:09;;;;;;;;;29.75;26.00;;;;;14.98;45.55;98713.34;4816761;29;103691;-89
2021/11/14 01:31:36;;;;;;;;;24.75;21.75;;;;;14.99;45.85;98714.19;4814662;28;103011;-87
2021/11/14 01:34:03;;;;;;;;;31.50;23.75;;;;;14.99;45.88;98717.75;4820577;29;102203;-89
2021/11/14 01:36:33;;;;;;;;;22.75;20.00;;;;;15.00;45.91;98721.28;4803156;29;102776;-89
2021/11/14 01:39:01;;;;;;;;;25.50;22.75;;;;;14.99;45.92;98717.75;4815870;29;104223;-88
2021/11/14 01:41:28;;;;;;;;;20.50;20.50;;;;;14.99;45.94;98706.84;4807686;29;102729;-89
2021/11/14 01:43:55;;;;;;;;;21.25;19.50;;;;;14.99;45.89;98714.19;4828535;28;102487;-89
2021/11/14 01:46:22;;;;;;;;;25.00;22.00;;;;;14.98;45.56;98710.63;4821809;29;102635;-89
2021/11/14 01:48:50;;;;;;;;;26.00;22.50;;;;;14.98;45.98;98710.63;4820954;29;103921;-83
2021/11/14 01:51:17;;;;;;;;;24.50;22.00;;;;;14.98;45.70;98710.63;4824483;29;104880;-82
2021/11/14 01:53:44;;;;;;;;;24.50;22.00;;;;;14.96;45.63;98707.28;4801562;29;103674;-82
2021/11/14 01:56:13;;;;;;;;;29.75;21.25;;;;;14.97;45.91;98700.78;4819630;29;102735;-88
2021/11/14 01:58:40;;;;;;;;;25.25;20.50;;;;;14.96;45.56;98707.28;4814671;29;104169;-88
2021/11/14 02:01:19;;;;;;;;;20.50;19.00;;;;;14.98;46.00;98710.63;4747722;29;104163;-89
2021/11/14 02:03:49;;;;;;;;;24.75;22.25;;;;;14.97;45.95;98708.97;4790060;29;103376;-89
2021/11/14 02:06:16;;;;;;;;;23.50;21.25;;;;;14.98;45.82;98707.91;4800838;29;111492;-88
2021/11/14 02:08:44;;;;;;;;;26.00;21.50;;;;;14.97;46.11;98714.41;4791549;29;104748;-89
2021/11/14 02:11:14;;;;;;;;;26.25;22.25;;;;;14.97;45.86;98711.69;4816910;28;102626;-89
2021/11/14 02:13:42;;;;;;;;;24.50;21.50;;;;;14.97;45.52;98708.13;4825131;28;102032;-89
2021/11/14 02:16:10;;;;;;;;;26.25;21.75;;;;;14.95;45.78;98708.34;4815631;29;102464;-88
2021/11/14 02:18:37;;;;;;;;;23.25;20.25;;;;;14.94;45.70;98709.44;4795759;29;103483;-89
2021/11/14 02:21:04;;;;;;;;;25.75;21.75;;;;;14.95;45.85;98718.44;4816585;29;102630;-89
2021/11/14 02:23:31;;;;;;;;;20.50;16.75;;;;;14.94;46.07;98716.75;4821620;29;102548;-89
2021/11/14 02:25:58;;;;;;;;;27.75;19.50;;;;;14.93;45.56;98720.53;4807011;29;102357;-89
2021/11/14 02:28:26;;;;;;;;;22.00;20.00;;;;;14.91;45.64;98720.75;4824507;29;109231;-88
2021/11/14 02:30:54;;;;;;;;;25.75;19.25;;;;;14.89;45.75;98724.75;4820865;29;102233;-88
2021/11/14 02:33:21;;;;;;;;;23.00;20.00;;;;;14.87;45.61;98726.88;4808676;29;102501;-88
2021/11/14 02:35:50;;;;;;;;;25.75;23.25;;;;;14.83;45.85;98723.78;4817463;29;102360;-89
2021/11/14 02:38:18;;;;;;;;;23.00;19.50;;;;;14.85;45.68;98720.84;4821172;29;105056;-89
2021/11/14 02:40:45;;;;;;;;;22.00;20.00;;;;;14.87;46.09;98724.97;4774663;29;102272;-88
2021/11/14 02:43:13;;;;;;;;;27.25;23.00;;;;;14.87;45.78;98724.16;4811563;29;102456;-89
2021/11/14 02:45:40;;;;;;;;;25.00;20.00;;;;;14.88;46.22;98728.53;4806675;28;102128;-89
2021/11/14 02:48:07;;;;;;;;;23.75;20.75;;;;;14.89;46.55;98727.47;4816166;28;103889;-88
2021/11/14 02:50:34;;;;;;;;;22.50;19.75;;;;;14.90;46.12;98740.88;4813694;29;102460;-89
2021/11/14 02:53:02;;;;;;;;;26.00;21.75;;;;;14.89;45.64;98728.31;4806939;28;102452;-88
2021/11/14 02:55:31;;;;;;;;;25.50;23.75;;;;;14.91;45.72;98741.69;4787398;28;103381;-82
2021/11/14 02:58:00;;;;;;;;;23.00;20.00;;;;;14.91;45.93;98731.63;4767868;29;108138;-89
2021/11/14 03:00:32;;;;;;;;;25.75;21.75;;;;;14.92;45.90;98732.47;4806254;29;102525;-89
2021/11/14 03:02:59;;;;;;;;;22.00;18.25;;;;;14.91;45.91;98726.19;4768983;29;102201;-89
2021/11/14 03:05:26;;;;;;;;;20.75;19.75;;;;;14.91;46.00;98737.09;4793599;29;102573;-89
2021/11/14 03:07:53;;;;;;;;;21.00;20.25;;;;;14.94;45.89;98744.81;4793155;29;103807;-89
2021/11/14 03:10:25;;;;;;;;;21.50;19.25;;;;;14.94;46.26;98742.09;4774532;29;102348;-89
2021/11/14 03:13:14;;;;;;;;;24.75;20.00;;;;;14.95;45.78;98746.47;4781606;29;102761;-89
2021/11/14 03:15:44;;;;;;;;;25.25;20.00;;;;;14.96;46.02;98739.97;4827344;29;104418;-88
2021/11/14 03:18:11;;;;;;;;;22.75;21.50;;;;;14.95;45.92;98742.94;4800294;29;110796;-89
2021/11/14 03:20:39;;;;;;;;;25.00;22.25;;;;;14.97;45.63;98741.63;4817933;29;102694;-88
2021/11/14 03:23:06;;;;;;;;;27.00;21.00;;;;;14.97;45.77;98754.41;4807267;29;104747;-89
2021/11/14 03:25:33;;;;;;;;;19.25;18.75;;;;;14.97;46.10;98749.81;4816406;29;102246;-89
2021/11/14 03:28:00;;;;;;;;;25.25;20.00;;;;;14.99;45.74;98755.03;4777452;29;104089;-89
2021/11/14 03:30:28;;;;;;;;;24.00;20.25;;;;;14.98;45.48;98753.38;4821393;29;108771;-89
2021/11/14 03:32:55;;;;;;;;;23.00;18.75;;;;;14.98;46.08;98756.91;4804955;29;102520;-88
2021/11/14 03:35:22;;;;;;;;;26.75;20.75;;;;;14.98;45.80;98754.19;4822100;29;102207;-88
2021/11/14 03:37:49;;;;;;;;;25.50;20.00;;;;;14.97;46.12;98760.69;4826898;28;104307;-88
2021/11/14 03:40:17;;;;;;;;;21.25;20.00;;;;;14.97;45.88;98757.97;4825671;28;102238;-88
2021/11/14 03:42:44;;;;;;;;;23.50;20.00;;;;;14.97;46.07;98752.53;4791112;29;102136;-88
2021/11/14 03:45:11;;;;;;;;;22.25;20.00;;;;;14.97;45.74;98760.69;4808313;29;102165;-88
2021/11/14 03:47:38;;;;;;;;;23.00;22.00;;;;;14.97;45.74;98762.59;4814196;29;104046;-88
2021/11/14 03:50:06;;;;;;;;;21.50;20.75;;;;;14.97;45.53;98757.97;4798412;29;103123;-89
2021/11/14 03:52:33;;;;;;;;;24.00;23.00;;;;;14.97;45.74;98754.41;4814002;29;102248;-86
2021/11/14 03:55:00;;;;;;;;;25.50;21.25;;;;;14.92;46.00;98757.81;4795397;29;102335;-88
2021/11/14 03:57:28;;;;;;;;;21.50;19.50;;;;;14.93;45.95;98767.66;4799109;29;109898;-88
2021/11/14 03:59:55;;;;;;;;;24.75;20.00;;;;;14.93;46.08;98762.22;4796605;29;103161;-82
2021/11/14 04:02:22;;;;;;;;;21.00;18.00;;;;;14.92;45.70;98762.41;4807189;29;102638;-82
2021/11/14 04:04:49;;;;;;;;;23.75;20.00;;;;;14.91;45.79;98764.31;4796489;29;102841;-89
2021/11/14 04:07:16;;;;;;;;;21.50;20.25;;;;;14.92;45.77;98760.53;4806975;29;104902;-89
2021/11/14 04:09:43;;;;;;;;;21.50;20.50;;;;;14.92;45.90;98768.69;4791983;29;103983;-89
2021/11/14 04:12:10;;;;;;;;;21.25;20.00;;;;;14.94;45.83;98765.75;4803095;29;102483;-89
2021/11/14 04:14:37;;;;;;;;;18.75;15.00;;;;;14.93;45.33;98766.81;4818428;29;102291;-89
2021/11/14 04:17:04;;;;;;;;;23.25;18.50;;;;;14.92;45.91;98765.97;4824032;29;104049;-88
2021/11/14 04:19:31;;;;;;;;;23.75;23.75;;;;;14.92;45.78;98767.88;4817558;29;102255;-89
2021/11/14 04:21:58;;;;;;;;;26.75;20.50;;;;;14.91;45.39;98768.91;4813249;29;104244;-82
2021/11/14 04:24:25;;;;;;;;;22.75;20.00;;;;;14.90;45.60;98767.28;4817815;29;102218;-88
2021/11/14 04:26:52;;;;;;;;;21.75;18.25;;;;;14.90;45.58;98767.28;4791973;29;104136;-89
2021/11/14 04:29:19;;;;;;;;;24.25;21.75;;;;;14.90;45.78;98770.00;4815517;29;102156;-89
2021/11/14 04:31:46;;;;;;;;;20.75;19.00;;;;;14.89;45.93;98766.44;4796240;29;102180;-89
2021/11/14 04:34:14;;;;;;;;;24.75;19.50;;;;;14.90;45.68;98778.16;4821782;29;102404;-89
2021/11/14 04:36:42;;;;;;;;;21.50;18.00;;;;;14.83;45.42;98771.94;4772150;28;104109;-88
2021/11/14 04:39:12;;;;;;;;;25.25;20.50;;;;;14.85;45.83;98776.13;4756696;28;102499;-88
2021/11/14 04:41:42;;;;;;;;;24.50;18.25;;;;;14.83;45.44;98777.38;4724774;29;102721;-89
2021/11/14 04:44:10;;;;;;;;;23.75;18.75;;;;;14.83;45.62;98780.94;4681285;29;102846;-89
2021/11/14 04:46:37;;;;;;;;;23.25;20.00;;;;;14.84;45.73;98784.50;4805938;29;104328;-88
2021/11/14 04:49:04;;;;;;;;;20.25;17.50;;;;;14.88;45.92;98793.88;4827450;29;102300;-88
2021/11/14 04:51:31;;;;;;;;;19.50;18.25;;;;;14.87;45.84;98793.03;4820567;28;103598;-89
2021/11/14 04:53:58;;;;;;;;;21.00;17.00;;;;;14.87;45.83;98792.19;4787209;29;102201;-88
2021/11/14 04:56:25;;;;;;;;;26.25;20.25;;;;;14.87;45.93;98790.31;4819434;29;104073;-89
2021/11/14 04:58:53;;;;;;;;;21.75;19.00;;;;;14.87;45.95;98798.47;4823495;29;102714;-88
2021/11/14 05:01:20;;;;;;;;;22.25;19.00;;;;;14.89;45.88;98792.81;4830594;29;102205;-89
2021/11/14 05:03:49;;;;;;;;;20.50;18.75;;;;;14.89;45.55;98798.28;4817212;28;102789;-89
2021/11/14 05:06:16;;;;;;;;;22.50;17.00;;;;;14.89;45.73;98796.38;4817512;29;104130;-88
2021/11/14 05:08:43;;;;;;;;;18.75;18.00;;;;;14.90;45.74;98800.78;4820068;29;102634;-89
2021/11/14 05:11:10;;;;;;;;;19.50;14.00;;;;;14.90;45.91;98808.13;4815573;28;102751;-83
2021/11/14 05:13:37;;;;;;;;;26.25;21.75;;;;;14.90;45.70;98800.78;4809646;28;102396;-83
2021/11/14 05:16:04;;;;;;;;;20.00;17.50;;;;;14.91;45.62;98809.75;4812848;29;104965;-83
2021/11/14 05:18:32;;;;;;;;;20.75;18.00;;;;;14.89;45.60;98810.00;4825875;29;102565;-88
2021/11/14 05:21:00;;;;;;;;;19.50;18.00;;;;;14.90;45.71;98817.13;4787051;29;104608;-89
2021/11/14 05:23:27;;;;;;;;;25.25;18.00;;;;;14.91;45.64;98816.03;4790145;29;102694;-88
2021/11/14 05:25:54;;;;;;;;;13.50;11.25;;;;;14.92;45.80;98817.72;4768248;29;105621;-82
2021/11/14 05:28:21;;;;;;;;;20.50;18.75;;;;;14.92;45.66;98815.00;4812823;28;102662;-89
2021/11/14 05:30:48;;;;;;;;;19.50;19.25;;;;;14.92;45.89;98823.16;4793744;28;102689;-89
2021/11/14 05:33:15;;;;;;;;;17.00;16.75;;;;;14.92;45.71;98825.03;4798843;29;102211;-88
2021/11/14 05:35:42;;;;;;;;;20.50;18.75;;;;;14.93;45.67;98824.84;4798124;29;104123;-89
2021/11/14 05:38:09;;;;;;;;;18.00;16.25;;;;;14.92;45.59;98817.72;4799870;28;102371;-89
2021/11/14 05:40:37;;;;;;;;;21.25;19.50;;;;;14.92;45.70;98825.88;4798008;29;102644;-88
2021/11/14 05:43:04;;;;;;;;;17.75;17.00;;;;;14.91;45.87;98824.22;4804437;29;102521;-82
2021/11/14 05:45:31;;;;;;;;;22.00;19.25;;;;;14.92;45.83;98835.94;4817808;29;108941;-89
2021/11/14 05:47:58;;;;;;;;;21.00;18.50;;;;;14.91;45.69;98828.81;4820943;29;102464;-88
2021/11/14 05:50:25;;;;;;;;;24.25;19.00;;;;;14.92;45.79;98844.09;4786546;29;102581;-82
2021/11/14 05:52:52;;;;;;;;;22.75;19.25;;;;;14.91;46.02;98839.72;4822996;28;102487;-88
2021/11/14 05:55:20;;;;;;;;;20.00;18.00;;;;;14.91;45.93;98839.72;4797562;29;104116;-88
2021/11/14 06:00:23;;;;;;;;;19.25;17.00;;;;;14.90;45.78;98848.97;4794137;29;103648;-88
2021/11/14 06:02:58;;;;;;;;;22.00;16.25;;;;;14.87;45.63;98852.94;4825229;29;102187;-88
2021/11/14 06:05:26;;;;;;;;;22.25;17.75;;;;;14.85;46.14;98852.34;4820115;28;104017;-89
2021/11/14 06:07:53;;;;;;;;;22.50;18.25;;;;;14.83;45.39;98865.34;4820610;29;102099;-88
2021/11/14 06:10:20;;;;;;;;;22.75;18.00;;;;;14.83;45.54;98867.22;4809184;29;105613;-89
2021/11/14 06:12:47;;;;;;;;;20.75;19.50;;;;;14.80;45.80;98865.78;4813447;28;102417;-88
2021/11/14 06:15:15;;;;;;;;;5.75;3.25;;;;;14.82;45.87;98874.53;4804487;29;104137;-89
2021/11/14 06:17:42;;;;;;;;;19.50;18.25;;;;;14.82;46.05;98881.88;4824098;29;102626;-82
2021/11/14 06:20:12;;;;;;;;;19.50;16.25;;;;;14.83;45.88;98889.00;4821462;29;102379;-88
2021/11/14 06:22:39;;;;;;;;;19.50;16.75;;;;;14.84;45.89;98893.41;4798513;29;102224;-88
2021/11/14 06:25:09;;;;;;;;;21.00;17.00;;;;;14.83;46.23;98895.28;4798120;29;103907;-85
2021/11/14 06:27:36;;;;;;;;;26.25;19.75;;;;;14.83;45.71;98889.84;4812920;29;103357;-83
2021/11/14 06:30:05;;;;;;;;;20.75;17.75;;;;;14.83;45.67;98903.44;4813602;29;102310;-82
2021/11/14 06:32:32;;;;;;;;;18.75;16.50;;;;;14.83;45.56;98903.44;4802266;29;102618;-89
2021/11/14 06:34:59;;;;;;;;;20.00;19.25;;;;;14.82;46.00;98901.78;4818774;29;103859;-82
2021/11/14 06:37:27;;;;;;;;;18.00;14.00;;;;;14.85;45.87;98906.78;4817907;28;105044;-89
2021/11/14 06:39:54;;;;;;;;;20.75;16.25;;;;;14.84;45.64;98904.28;4797385;29;102897;-88
2021/11/14 06:42:21;;;;;;;;;18.50;16.50;;;;;14.85;45.56;98914.97;4819802;29;102544;-89
2021/11/14 06:44:48;;;;;;;;;16.25;15.50;;;;;14.87;45.93;98915.56;4776049;29;104050;-89
2021/11/14 06:47:15;;;;;;;;;21.75;18.00;;;;;14.86;45.90;98919.31;4816437;29;102215;-89
2021/11/14 06:49:44;;;;;;;;;17.50;15.25;;;;;14.87;45.88;98923.72;4803031;29;102359;-88
2021/11/14 06:52:11;;;;;;;;;18.50;16.00;;;;;14.89;46.25;98924.34;4818882;28;103448;-88
2021/11/14 06:54:38;;;;;;;;;17.75;16.00;;;;;14.91;46.17;98926.84;4787455;29;104101;-88
2021/11/14 06:57:05;;;;;;;;;18.75;16.00;;;;;14.92;45.85;98932.06;4827914;29;102386;-88
2021/11/14 06:59:37;;;;;;;;;18.00;16.00;;;;;14.93;45.51;98936.47;4822563;29;102297;-88
2021/11/14 07:02:07;;;;;;;;;19.25;17.75;;;;;14.94;46.16;98932.69;4804926;29;102351;-88
2021/11/14 07:04:34;;;;;;;;;19.00;17.25;;;;;14.93;45.84;98936.47;4814630;29;108801;-88
2021/11/14 07:07:02;;;;;;;;;19.25;17.25;;;;;14.95;45.98;98945.22;4814638;28;102452;-88
2021/11/14 07:09:29;;;;;;;;;21.25;16.50;;;;;14.95;45.91;98944.44;4812479;29;102478;-82
2021/11/14 07:11:56;;;;;;;;;19.50;17.50;;;;;14.95;45.78;98942.50;4805876;29;102703;-88
2021/11/14 07:14:23;;;;;;;;;22.25;19.50;;;;;14.96;45.63;98946.91;4818086;29;103739;-87
2021/11/14 07:16:51;;;;;;;;;19.25;16.00;;;;;14.96;46.02;98955.06;4791194;29;102242;-88
2021/11/14 07:19:18;;;;;;;;;20.50;17.00;;;;;14.96;45.65;98952.34;4783275;29;102691;-88
2021/11/14 07:21:45;;;;;;;;;18.25;14.75;;;;;14.95;45.97;98942.50;4796343;29;102688;-82
2021/11/14 07:24:13;;;;;;;;;18.50;16.50;;;;;14.97;45.94;98951.31;4793501;29;105157;-82
2021/11/14 07:26:40;;;;;;;;;17.00;15.50;;;;;14.95;46.02;98945.22;4782118;29;102794;-88
2021/11/14 07:29:07;;;;;;;;;17.00;15.00;;;;;14.96;45.84;98946.91;4818245;28;102499;-85
2021/11/14 07:31:34;;;;;;;;;19.00;18.00;;;;;14.96;45.67;98952.34;4819358;29;102693;-88
2021/11/14 07:34:01;;;;;;;;;20.25;16.50;;;;;14.97;45.69;98948.59;4817774;29;104094;-89
2021/11/14 07:36:28;;;;;;;;;17.75;17.00;;;;;14.97;45.91;98947.75;4813795;29;104859;-88
2021/11/14 07:38:55;;;;;;;;;21.50;17.25;;;;;14.98;45.44;98954.88;4793348;29;102255;-88
2021/11/14 07:41:22;;;;;;;;;15.00;14.00;;;;;14.98;45.77;98954.88;4795320;29;102776;-82
2021/11/14 07:43:49;;;;;;;;;20.00;19.00;;;;;14.98;45.67;98960.31;4807912;29;104108;-88
2021/11/14 07:46:16;;;;;;;;;16.50;15.75;;;;;14.98;45.60;98952.97;4811120;29;102350;-88
2021/11/14 07:48:44;;;;;;;;;13.50;10.50;;;;;14.97;45.48;98958.63;4804215;29;102595;-88
2021/11/14 07:51:11;;;;;;;;;20.50;18.25;;;;;14.96;45.59;98957.81;4802569;28;102286;-88
2021/11/14 07:53:38;;;;;;;;;20.25;16.25;;;;;14.96;46.08;98960.53;4786425;29;105585;-83
2021/11/14 07:56:06;;;;;;;;;16.25;16.00;;;;;14.97;46.08;98958.63;4791637;29;103787;-88
2021/11/14 07:58:32;;;;;;;;;13.75;13.75;;;;;14.95;45.46;98967.03;4800563;29;102575;-88
2021/11/14 08:00:59;;;;;;;;;19.25;17.50;;;;;14.97;45.75;98964.09;4796094;29;102275;-88
2021/11/14 08:03:31;;;;;;;;;18.50;16.50;;;;;14.94;45.74;98959.94;4823478;29;104227;-89
2021/11/14 08:06:00;;;;;;;;;20.25;16.75;;;;;14.95;45.70;98972.47;4819743;29;102290;-88
2021/11/14 08:08:27;;;;;;;;;17.25;13.50;;;;;14.93;45.95;98966.41;4788345;29;103207;-82
2021/11/14 08:10:54;;;;;;;;;18.50;15.75;;;;;14.94;45.81;98970.81;4816460;29;102609;-82
2021/11/14 08:13:24;;;;;;;;;18.00;14.50;;;;;14.94;45.70;98975.44;4779255;29;104013;-82
2021/11/14 08:15:51;;;;;;;;;22.50;18.00;;;;;14.90;45.93;98980.47;4781067;29;102474;-82
2021/11/14 08:18:18;;;;;;;;;20.00;17.00;;;;;14.91;45.88;98979.41;4798734;29;102389;-88
2021/11/14 08:20:46;;;;;;;;;16.00;13.50;;;;;14.91;45.81;98981.28;4788052;29;102625;-88
2021/11/14 08:23:14;;;;;;;;;19.00;16.00;;;;;14.91;45.70;98981.28;4796152;29;104077;-88
2021/11/14 08:25:42;;;;;;;;;18.75;16.25;;;;;14.92;45.66;98989.25;4798652;29;104229;-88
2021/11/14 08:28:09;;;;;;;;;18.75;16.75;;;;;14.91;45.69;98984.00;4802715;29;102357;-85
2021/11/14 08:30:36;;;;;;;;;16.00;15.25;;;;;14.92;45.59;98975.63;4819419;29;102261;-88
2021/11/14 08:33:04;;;;;;;;;25.75;19.50;;;;;14.91;46.16;98984.00;4808546;29;103126;-88
2021/11/14 08:35:31;;;;;;;;;18.25;16.00;;;;;14.90;45.84;98985.94;4784760;29;102639;-88
2021/11/14 08:38:00;;;;;;;;;15.00;14.75;;;;;14.90;45.65;98983.22;4804876;29;102665;-88
2021/11/14 08:40:29;;;;;;;;;17.00;16.25;;;;;14.91;45.42;98984.00;4814458;28;102141;-88
2021/11/14 08:42:57;;;;;;;;;19.00;17.00;;;;;14.92;45.57;98983.81;4811101;29;103839;-82
2021/11/14 08:45:24;;;;;;;;;17.00;15.25;;;;;14.93;45.86;98990.94;4790645;29;102722;-82
2021/11/14 08:47:52;;;;;;;;;15.75;14.00;;;;;14.93;45.95;98990.94;4811386;29;102484;-82
2021/11/14 08:50:19;;;;;;;;;17.50;16.75;;;;;14.93;45.90;98992.81;4794101;29;102773;-82
2021/11/14 08:52:46;;;;;;;;;14.25;11.50;;;;;14.94;45.98;98992.59;4813840;28;104084;-82
2021/11/14 08:55:15;;;;;;;;;17.00;15.00;;;;;14.95;45.97;98998.88;4818083;29;102213;-87
2021/11/14 08:57:42;;;;;;;;;4.50;1.00;;;;;14.95;45.70;99009.78;4807249;29;103559;-85
2021/11/14 09:00:10;;;;;;;;;17.25;16.00;;;;;14.96;46.11;99005.97;4807179;29;102611;-88
2021/11/14 09:02:37;;;;;;;;;21.50;17.50;;;;;14.97;45.72;99010.38;4805702;28;108721;-88
2021/11/14 09:05:05;;;;;;;;;14.25;14.25;;;;;14.98;46.03;99004.72;4815292;29;103449;-88
2021/11/14 09:07:32;;;;;;;;;16.75;15.00;;;;;14.99;45.66;99006.41;4790225;29;102249;-88
2021/11/14 09:09:59;;;;;;;;;10.75;7.00;;;;;15.00;45.66;99012.66;4787857;29;102723;-88
2021/11/14 09:12:26;;;;;;;;;19.50;15.25;;;;;15.01;45.80;99011.59;4788492;29;110786;-88
2021/11/14 09:14:56;;;;;;;;;17.50;16.00;;;;;15.01;45.69;99014.31;4796422;29;102700;-88
2021/11/14 09:17:26;;;;;;;;;19.00;16.50;;;;;15.00;45.83;99018.94;4800308;29;104201;-88
2021/11/14 09:19:53;;;;;;;;;16.75;14.25;;;;;15.00;45.90;99012.66;4804947;29;102780;-88
2021/11/14 09:22:20;;;;;;;;;19.00;16.75;;;;;15.01;45.67;99019.78;4808019;29;104179;-88
2021/11/14 09:24:47;;;;;;;;;17.75;16.50;;;;;15.01;45.83;99017.06;4801546;29;102569;-88
2021/11/14 09:27:14;;;;;;;;;17.25;14.75;;;;;14.99;45.73;99017.28;4807862;29;102139;-89
2021/11/14 09:29:41;;;;;;;;;17.25;15.25;;;;;14.99;45.54;99020.03;4815386;29;102373;-88
2021/11/14 09:32:08;;;;;;;;;17.00;16.75;;;;;15.00;46.03;99018.09;4787619;29;108912;-82
2021/11/14 09:34:35;;;;;;;;;19.75;15.25;;;;;15.00;45.64;99024.38;4787964;29;102200;-87
2021/11/14 09:37:03;;;;;;;;;14.75;13.00;;;;;15.00;45.82;99018.94;4803622;29;102027;-88
2021/11/14 09:39:29;;;;;;;;;16.50;14.75;;;;;15.00;45.90;99016.22;4804450;29;102797;-88
2021/11/14 09:41:57;;;;;;;;;17.25;14.75;;;;;15.01;45.68;99017.88;4805583;29;110871;-89
2021/11/14 09:44:24;;;;;;;;;16.50;16.25;;;;;15.01;45.55;99017.06;4788939;29;102150;-88
2021/11/14 09:46:55;;;;;;;;;18.75;15.00;;;;;15.00;45.41;99013.50;4810074;29;104285;-88
2021/11/14 09:49:23;;;;;;;;;18.75;15.00;;;;;15.02;45.62;99022.28;4769026;29;102674;-82
2021/11/14 09:51:54;;;;;;;;;19.50;16.75;;;;;15.01;45.51;99027.94;4803586;29;104140;-88
2021/11/14 09:54:22;;;;;;;;;19.25;16.75;;;;;15.01;45.91;99025.22;4808383;29;102662;-88
2021/11/14 09:56:49;;;;;;;;;17.00;15.25;;;;;15.00;45.84;99026.28;4807694;29;102675;-88
2021/11/14 09:59:16;;;;;;;;;22.75;16.75;;;;;14.99;45.34;99028.19;4810239;29;102647;-82
2021/11/14 10:01:44;;;;;;;;;14.50;12.75;;;;;14.99;45.89;99028.19;4804837;29;104105;-82
2021/11/14 10:04:12;;;;;;;;;16.50;15.50;;;;;14.99;45.57;99039.06;4777395;29;102565;-82
2021/11/14 10:06:39;;;;;;;;;17.25;16.00;;;;;14.98;45.67;99037.41;4794186;29;102450;-89
2021/11/14 10:09:06;;;;;;;;;18.00;16.00;;;;;14.97;45.88;99035.72;4826922;29;104900;-88
2021/11/14 10:11:36;;;;;;;;;15.50;14.25;;;;;14.98;45.73;99033.84;4823766;29;103969;-88
2021/11/14 10:14:03;;;;;;;;;17.00;15.75;;;;;14.96;45.85;99042.22;4801902;29;102615;-88
2021/11/14 10:16:30;;;;;;;;;15.25;13.50;;;;;14.97;45.81;99040.34;4811277;29;102612;-88
2021/11/14 10:18:59;;;;;;;;;15.75;14.75;;;;;14.95;45.69;99045.97;4798998;29;102660;-88
2021/11/14 10:21:28;;;;;;;;;16.00;15.00;;;;;14.97;45.52;99049.34;4793980;29;104593;-88
2021/11/14 10:23:55;;;;;;;;;14.25;14.25;;;;;14.96;45.45;99053.09;4822934;29;103345;-88
2021/11/14 10:26:25;;;;;;;;;21.75;17.50;;;;;14.95;45.53;99048.72;4823182;29;103310;-88
2021/11/14 10:28:56;;;;;;;;;18.25;16.00;;;;;14.96;46.04;99044.94;4796135;29;102476;-88
2021/11/14 10:31:24;;;;;;;;;16.00;15.00;;;;;14.96;45.44;99044.94;4803571;29;104854;-88
2021/11/14 10:33:51;;;;;;;;;14.25;14.25;;;;;14.98;45.57;99047.47;4818741;29;102401;-88
2021/11/14 10:36:19;;;;;;;;;22.50;16.75;;;;;14.97;45.71;99041.16;4818226;28;102146;-88
2021/11/14 10:38:46;;;;;;;;;17.75;15.25;;;;;14.95;45.78;99043.25;4818394;29;102293;-88
2021/11/14 10:41:14;;;;;;;;;17.25;14.75;;;;;14.96;45.69;99044.94;4807603;28;104688;-82
2021/11/14 10:43:48;;;;;;;;;19.00;17.50;;;;;14.96;45.72;99044.94;4817611;28;103901;-82
2021/11/14 10:46:20;;;;;;;;;14.50;12.75;;;;;14.98;45.77;99053.75;4806464;29;103530;-88
2021/11/14 10:48:48;;;;;;;;;16.75;13.50;;;;;14.97;45.95;99054.78;4804725;29;102937;-87
2021/11/14 10:51:15;;;;;;;;;19.00;17.50;;;;;14.99;45.75;99055.41;4798610;29;104181;-82
2021/11/14 10:53:45;;;;;;;;;11.00;11.00;;;;;15.00;46.34;99048.06;4815068;29;102757;-81
2021/11/14 10:56:14;;;;;;;;;12.75;12.75;;;;;15.03;45.62;99058.53;4807688;29;102622;-82
2021/11/14 10:58:42;;;;;;;;;19.50;16.00;;;;;15.03;45.78;99056.66;4807186;28;104160;-82
2021/11/14 11:01:13;;;;;;;;;18.00;16.00;;;;;15.03;45.82;99051.19;4793730;29;104042;-82
2021/11/14 11:03:48;;;;;;;;;14.75;13.00;;;;;15.04;45.80;99054.75;4785028;28;102549;-82
2021/11/14 11:06:25;;;;;;;;;20.25;14.75;;;;;15.04;45.42;99055.56;4752585;29;102340;-88
2021/11/14 11:08:58;;;;;;;;;16.00;14.00;;;;;15.06;45.74;99053.47;4791171;29;102438;-81
2021/11/14 11:11:33;;;;;;;;;17.00;14.00;;;;;15.07;45.79;99057.03;4821559;29;103776;-82
2021/11/14 11:14:00;;;;;;;;;18.00;16.00;;;;;15.06;46.05;99050.75;4805799;29;102733;-82